Saga Pearl II — 9HA2950 — position and weather

sailwx.info

Track history (hours):
 
Tides and Currents Weather Stations Pressure Air Temp Water Temp Dewpoint Dewpoint Depression Visibility Wind Speed Wind Dir Waves Ship Positions

Saga Pearl II

Last reported at 2018-Oct-20 13:28 UTC. Time now 2018-Oct-20 13:44 UTC.
Position N 43°49' E 007°48'.

Length 165 m; draft 6.5 m.

Type: Ship. MMSI: 256878000.

Date/timePositionNaut miles runAvg speedWind from/ knotsBaromVisibWave heightAir tempDewpointWater temp
2018-Oct-20 13:28N 43°49' E 007°48'0 0.0
2018-Oct-20 12:58N 43°49' E 007°48'0 0.0
2018-Oct-20 12:28N 43°49' E 007°48'0 0.0
2018-Oct-20 12:00N 43°49' E 007°48'0 0.0
2018-Oct-20 11:30N 43°49' E 007°48'0 0.0
2018-Oct-20 11:00N 43°49' E 007°48'0 0.0
2018-Oct-20 10:30N 43°49' E 007°48'0 0.0
2018-Oct-20 10:03N 43°49' E 007°48'0 0.1
2018-Oct-20 09:57N 43°49' E 007°48'0 0.0
2018-Oct-20 09:29N 43°49' E 007°48'0 0.0
2018-Oct-20 08:56N 43°49' E 007°48'0 0.0
2018-Oct-20 08:23N 43°49' E 007°48'0 0.0
2018-Oct-20 08:02N 43°49' E 007°48'0 0.1
2018-Oct-20 07:56N 43°49' E 007°48'0 0.0
2018-Oct-20 07:28N 43°49' E 007°48'0 0.0
2018-Oct-20 07:01N 43°49' E 007°48'0 0.1
2018-Oct-20 06:58N 43°49' E 007°48'0 0.0
2018-Oct-20 06:28N 43°49' E 007°48'1 3.4
2018-Oct-20 06:04N 43°48' E 007°47'115.2
2018-Oct-20 06:01N 43°47' E 007°46'816.0
2018-Oct-20 05:30N 43°41' E 007°39'715.6
2018-Oct-20 05:04N 43°36' E 007°32'115.6
2018-Oct-20 05:01N 43°35' E 007°31'815.4
2018-Oct-20 04:31N 43°30' E 007°24'715.6
2018-Oct-20 04:03N 43°24' E 007°18'115.7
2018-Oct-20 04:01N 43°24' E 007°17'15923.4
2018-Oct-20 04:00N 43°36' E 007°30'2347.6 090 / 41019.910.8 20.717.322.9
2018-Oct-20 03:30N 43°18' E 007°10'715.6
2018-Oct-20 03:04N 43°13' E 007°04'115.6
2018-Oct-20 03:01N 43°12' E 007°03'815.5
2018-Oct-20 02:31N 43°07' E 006°55'715.1
2018-Oct-20 02:04N 43°02' E 006°49'115.8
2018-Oct-20 02:01N 43°01' E 006°49'915.7
2018-Oct-20 01:28N 42°55' E 006°41'915.6
2018-Oct-20 00:53N 42°48' E 006°33'715.2
2018-Oct-20 00:26N 42°44' E 006°25'8916.4
2018-Oct-19 19:00N 42°06' E 004°36'6315.7 050 / 171017.6 5.4 21.218.0
2018-Oct-19 15:00N 41°42' E 003°18'3216.2 020 / 311015.410.8 20.016.921.4
2018-Oct-19 13:00N 41°24' E 002°42'1111.6 050 / 201015.0 5.4 21.617.421.7
2018-Oct-19 12:03N 41°24' E 002°28'115.2
2018-Oct-19 12:01N 41°24' E 002°27'2122.8
2018-Oct-19 12:00N 41°24' E 002°24'612.5 050 / 241015.0 5.4 22.115.621.6
2018-Oct-19 11:30N 41°21' E 002°17'510.5
2018-Oct-19 11:03N 41°22' E 002°11'0 5.3
2018-Oct-19 11:00N 41°22' E 002°11'0 0.0
2018-Oct-17 23:32N 41°22' E 002°11'0 0.8
2018-Oct-17 23:23N 41°22' E 002°11'2 6.5
2018-Oct-17 23:03N 41°20' E 002°12'0 7.0
2018-Oct-17 23:01N 41°20' E 002°13'612.1
2018-Oct-17 22:30N 41°14' E 002°13'715.2
2018-Oct-17 22:03N 41°08' E 002°08'114.9
2018-Oct-17 22:00N 41°08' E 002°08'815.2
2018-Oct-17 21:29N 41°01' E 002°03'1428.7
2018-Oct-17 21:00N 40°48' E 001°54'5513.8 030 / 221013.2 5.4 20.216.6
2018-Oct-17 17:00N 40°00' E 001°18'6616.5 040 / 191011.910.8 20.616.324.8
2018-Oct-17 13:00N 39°00' E 000°42'6312.6 020 / 191012.5 5.4 22.011.325.0
2018-Oct-17 08:00N 38°06' E 000°00'2615.0 360 / 151014.7 5.4 22.315.1
2018-Oct-17 06:15N 37°45' W 000°20'314.6
2018-Oct-17 06:03N 37°43' W 000°22'114.8
2018-Oct-17 06:00N 37°42' W 000°23'714.6
2018-Oct-17 05:30N 37°36' W 000°28'714.5
2018-Oct-17 05:03N 37°31' W 000°33'114.5
2018-Oct-17 05:00N 37°31' W 000°34'714.6
2018-Oct-17 04:30N 37°26' W 000°41'714.9
2018-Oct-17 04:03N 37°21' W 000°47'115.0
2018-Oct-17 04:00N 37°21' W 000°48'5340.8
2018-Oct-17 04:00N 37°18' W 000°42'1120.7 360 / 231013.410.8 20.114.725.3
2018-Oct-17 03:28N 37°15' W 000°55'715.4
2018-Oct-17 02:59N 37°10' W 001°02'2424.1
2018-Oct-17 02:00N 36°54' W 001°24'6015.0 010 / 151014.727.0 20.210.7
2018-Oct-16 22:00N 36°18' W 002°24'24714.5 1016.110.8 20.215.7
2018-Oct-16 05:00N 36°12' W 007°30'5919.8 310 / 111011.910.8 19.217.123.4
2018-Oct-16 02:00N 36°24' W 008°42'4310.6 330 / 101012.427.0 19.015.6
2018-Oct-15 22:00N 36°42' W 009°30'8016.1 340 / 221013.4 5.4 18.017.2
2018-Oct-15 17:00N 38°00' W 009°54'2222.6 310 / 231010.510.8 18.416.221.1
2018-Oct-15 16:02N 38°21' W 010°02'115.6
2018-Oct-15 15:59N 38°21' W 010°02'815.8
2018-Oct-15 15:30N 38°29' W 010°04'715.9
2018-Oct-15 15:03N 38°36' W 010°05'116.2
2018-Oct-15 15:00N 38°37' W 010°05'816.5
2018-Oct-15 14:30N 38°45' W 010°06'816.2
2018-Oct-15 14:00N 38°53' W 010°07'5462.0
2018-Oct-15 14:00N 38°48' W 010°06'1326.7 330 / 251008.8 5.4 17.116.119.9
2018-Oct-15 13:30N 39°01' W 010°07'716.1
2018-Oct-15 13:03N 39°08' W 010°07'116.1
2018-Oct-15 13:00N 39°09' W 010°07'3217.4
2018-Oct-15 13:00N 39°06' W 010°06'1122.6 320 / 251008.310.8 17.115.619.0
2018-Oct-15 12:30N 39°17' W 010°08'10914.5
2018-Oct-15 05:00N 41°06' W 010°06'4824.0 270 / 541002.7 2.2 17.613.820.1
2018-Oct-15 03:00N 41°54' W 010°06'6611.0 240 / 401002.010.8 18.014.9
2018-Oct-14 21:00N 43°00' W 010°00'3015.2 190 / 321006.8 2.2 15.511.8
2018-Oct-14 19:00N 43°30' W 009°54'6412.8 190 / 281009.010.8 15.5 8.718.3
2018-Oct-14 14:00N 44°24' W 009°06'1312.7 330 / 241011.9 5.4 18.011.019.1
2018-Oct-14 13:00N 44°36' W 009°00'4422.1 320 / 161012.510.8 17.6 9.218.7
2018-Oct-14 11:00N 45°12' W 008°24'5911.7 360 / 271011.9 5.4 17.512.7
2018-Oct-14 06:00N 46°00' W 007°36'5614.0 360 / 321005.810.8 14.412.219.3
2018-Oct-14 02:00N 46°48' W 006°54'4916.2 260 / 81005.027.0 14.811.5
2018-Oct-13 23:00N 47°30' W 006°18'5811.6 210 / 141006.7 5.4 15.511.8
2018-Oct-13 18:00N 48°18' W 005°30'915.8 220 / 261006.710.8 16.114.217.0
2018-Oct-13 17:26N 48°27' W 005°28'410.2
2018-Oct-13 17:03N 48°30' W 005°25'110.5
2018-Oct-13 17:00N 48°31' W 005°25'5 9.9
2018-Oct-13 16:30N 48°35' W 005°21'4 9.6
2018-Oct-13 16:03N 48°38' W 005°16'0 9.7
2018-Oct-13 16:00N 48°38' W 005°16'510.2
2018-Oct-13 15:30N 48°42' W 005°11'510.5
2018-Oct-13 15:03N 48°46' W 005°06'111.8
2018-Oct-13 15:00N 48°46' W 005°05'611.5
2018-Oct-13 14:29N 48°50' W 004°59'10412.1
2018-Oct-13 05:52N 49°57' W 002°55'1314.7
2018-Oct-13 05:00N 50°00' W 002°36'816.0 170 / 371007.410.8 18.114.518.3
2018-Oct-13 04:29N 50°04' W 002°25'716.9
2018-Oct-13 04:03N 50°06' W 002°14'117.2
2018-Oct-13 04:00N 50°06' W 002°13'917.4
2018-Oct-13 03:30N 50°08' W 001°60'817.1
2018-Oct-13 03:04N 50°10' W 001°48'117.0
2018-Oct-13 03:00N 50°11' W 001°47'916.8
2018-Oct-13 02:29N 50°12' W 001°33'816.2
2018-Oct-13 02:00N 50°14' W 001°21'715.3
2018-Oct-13 01:30N 50°16' W 001°10'614.4
2018-Oct-13 01:03N 50°18' W 001°00'114.0
2018-Oct-13 01:00N 50°18' W 000°59'713.2
2018-Oct-13 00:31N 50°21' W 000°50'612.3
2018-Oct-13 00:04N 50°22' W 000°42'111.5
2018-Oct-13 00:00N 50°23' W 000°41'611.7
2018-Oct-12 23:30N 50°24' W 000°32'2112.0
2018-Oct-12 21:44N 50°30' E 000°00'313.0
2018-Oct-12 21:29N 50°31' E 000°05'4 8.7
2018-Oct-12 21:00N 50°30' E 000°12'477.9 180 / 301013.6 5.4 19.015.6
2018-Oct-12 20:57N 50°33' E 000°17'714.6
2018-Oct-12 20:29N 50°35' E 000°27'715.5
2018-Oct-12 20:03N 50°37' E 000°36'114.7
2018-Oct-12 20:00N 50°38' E 000°37'815.9
2018-Oct-12 19:30N 50°42' E 000°47'716.1
2018-Oct-12 19:03N 50°47' E 000°56'116.1
2018-Oct-12 19:00N 50°47' E 000°57'815.8
2018-Oct-12 18:30N 50°52' E 001°07'715.3
2018-Oct-12 18:03N 50°58' E 001°13'115.1
2018-Oct-12 18:00N 50°59' E 001°14'714.2
2018-Oct-12 17:30N 51°05' E 001°18'2 3.9
2018-Oct-12 17:03N 51°07' E 001°19'0 0.9
2018-Oct-12 17:00N 51°07' E 001°19'0 0.0
2018-Oct-12 16:19N 51°07' E 001°19'0 0.0
2018-Oct-12 15:52N 51°07' E 001°19'0 0.0
2018-Oct-12 15:25N 51°07' E 001°19'0 0.0
2018-Oct-12 15:01N 51°07' E 001°19'0 0.0
2018-Oct-12 14:49N 51°07' E 001°19'0 0.0
2018-Oct-12 14:15N 51°07' E 001°19'0 0.0
2018-Oct-12 09:40N 51°07' E 001°19'0 0.0
2018-Oct-12 09:22N 51°07' E 001°19'0 0.0
2018-Oct-12 09:01N 51°07' E 001°19'0 0.0
2018-Oct-12 08:52N 51°07' E 001°19'0 0.0
2018-Oct-12 08:13N 51°07' E 001°19'0 0.0
2018-Oct-12 08:01N 51°07' E 001°19'0 0.0
2018-Oct-12 07:46N 51°07' E 001°19'0 0.0
2018-Oct-12 06:46N 51°07' E 001°19'0 0.3
2018-Oct-12 06:30N 51°07' E 001°19'4 8.8
2018-Oct-12 06:03N 51°08' E 001°25'110.4
2018-Oct-12 06:00N 51°08' E 001°26'4 7.6
2018-Oct-12 05:30N 51°08' E 001°32'510.2
2018-Oct-12 05:03N 51°11' E 001°38'111.0
2018-Oct-12 05:00N 51°11' E 001°39'510.5
2018-Oct-12 04:30N 51°15' E 001°45'510.3
2018-Oct-12 04:03N 51°19' E 001°48'110.1
2018-Oct-12 04:00N 51°19' E 001°49'510.0
2018-Oct-12 03:30N 51°24' E 001°52'4 9.7
2018-Oct-12 03:03N 51°28' E 001°55'110.0
2018-Oct-12 03:00N 51°28' E 001°56'510.2
2018-Oct-12 02:30N 51°32' E 002°02'5 9.9
2018-Oct-12 02:02N 51°35' E 002°07'0 9.6
2018-Oct-12 02:00N 51°35' E 002°07'5 9.9
2018-Oct-12 01:30N 51°39' E 002°12'4 8.4
2018-Oct-12 01:03N 51°42' E 002°17'0 7.6
2018-Oct-12 01:00N 51°42' E 002°17'4 7.9
2018-Oct-12 00:28N 51°45' E 002°22'1710.0
2018-Oct-11 22:46N 51°60' E 002°36'5213.7
2018-Oct-11 19:00N 52°48' E 003°06'23212.0 150 / 241007.810.8 17.615.2
2018-Oct-10 23:40N 56°00' E 006°50'413.5
2018-Oct-10 23:24N 56°03' E 006°53'513.6
2018-Oct-10 23:03N 56°07' E 006°58'113.6
2018-Oct-10 23:00N 56°08' E 006°59'713.6
2018-Oct-10 22:30N 56°13' E 007°06'613.5
2018-Oct-10 22:02N 56°18' E 007°13'013.8
2018-Oct-10 22:00N 56°18' E 007°14'713.3
2018-Oct-10 21:28N 56°24' E 007°22'613.3
2018-Oct-10 21:02N 56°29' E 007°27'113.3
2018-Oct-10 21:00N 56°29' E 007°28'713.2
2018-Oct-10 20:30N 56°35' E 007°34'613.0
2018-Oct-10 20:03N 56°40' E 007°38'113.1
2018-Oct-10 20:00N 56°41' E 007°39'612.4
2018-Oct-10 19:30N 56°46' E 007°44'612.3
2018-Oct-10 19:03N 56°51' E 007°49'012.6
2018-Oct-10 19:00N 56°51' E 007°50'612.0
2018-Oct-10 18:30N 56°56' E 007°58'612.4
2018-Oct-10 18:03N 57°00' E 008°04'112.5
2018-Oct-10 18:00N 57°01' E 008°04'612.5
2018-Oct-10 17:30N 57°05' E 008°12'612.5
2018-Oct-10 17:03N 57°10' E 008°19'112.7
2018-Oct-10 17:00N 57°10' E 008°20'612.3
2018-Oct-10 16:30N 57°15' E 008°27'612.3
2018-Oct-10 16:02N 57°19' E 008°35'112.7
2018-Oct-10 15:58N 57°19' E 008°36'612.7
2018-Oct-10 15:30N 57°22' E 008°46'612.8
2018-Oct-10 15:03N 57°25' E 008°55'012.6
2018-Oct-10 15:00N 57°25' E 008°56'612.6
2018-Oct-10 14:30N 57°28' E 009°06'612.5
2018-Oct-10 14:00N 57°32' E 009°15'612.5
2018-Oct-10 13:30N 57°37' E 009°23'  
Track history (hours):
 
Tides and Currents Weather Stations Pressure Air Temp Water Temp Dewpoint Dewpoint Depression Visibility Wind Speed Wind Dir Waves Ship Positions

Saga Pearl II

Last reported at 2018-Oct-20 13:28 UTC. Time now 2018-Oct-20 13:44 UTC.
Position N 43°49' E 007°48'.

Length 165 m; draft 6.5 m.

Type: Ship. MMSI: 256878000.

Date/timePositionNaut miles runAvg speedWind from/ knotsBaromVisibWave heightAir tempDewpointWater temp
2018-Oct-20 13:28N 43°49' E 007°48'0 0.0
2018-Oct-20 12:58N 43°49' E 007°48'0 0.0
2018-Oct-20 12:28N 43°49' E 007°48'0 0.0
2018-Oct-20 12:00N 43°49' E 007°48'0 0.0
2018-Oct-20 11:30N 43°49' E 007°48'0 0.0
2018-Oct-20 11:00N 43°49' E 007°48'0 0.0
2018-Oct-20 10:30N 43°49' E 007°48'0 0.0
2018-Oct-20 10:03N 43°49' E 007°48'0 0.1
2018-Oct-20 09:57N 43°49' E 007°48'0 0.0
2018-Oct-20 09:29N 43°49' E 007°48'0 0.0
2018-Oct-20 08:56N 43°49' E 007°48'0 0.0
2018-Oct-20 08:23N 43°49' E 007°48'0 0.0
2018-Oct-20 08:02N 43°49' E 007°48'0 0.1
2018-Oct-20 07:56N 43°49' E 007°48'0 0.0
2018-Oct-20 07:28N 43°49' E 007°48'0 0.0
2018-Oct-20 07:01N 43°49' E 007°48'0 0.1
2018-Oct-20 06:58N 43°49' E 007°48'0 0.0
2018-Oct-20 06:28N 43°49' E 007°48'1 3.4
2018-Oct-20 06:04N 43°48' E 007°47'115.2
2018-Oct-20 06:01N 43°47' E 007°46'816.0
2018-Oct-20 05:30N 43°41' E 007°39'715.6
2018-Oct-20 05:04N 43°36' E 007°32'115.6
2018-Oct-20 05:01N 43°35' E 007°31'815.4
2018-Oct-20 04:31N 43°30' E 007°24'715.6
2018-Oct-20 04:03N 43°24' E 007°18'115.7
2018-Oct-20 04:01N 43°24' E 007°17'15923.4
2018-Oct-20 04:00N 43°36' E 007°30'2347.6 090 / 41019.910.8 20.717.322.9
2018-Oct-20 03:30N 43°18' E 007°10'715.6
2018-Oct-20 03:04N 43°13' E 007°04'115.6
2018-Oct-20 03:01N 43°12' E 007°03'815.5
2018-Oct-20 02:31N 43°07' E 006°55'715.1
2018-Oct-20 02:04N 43°02' E 006°49'115.8
2018-Oct-20 02:01N 43°01' E 006°49'915.7
2018-Oct-20 01:28N 42°55' E 006°41'915.6
2018-Oct-20 00:53N 42°48' E 006°33'715.2
2018-Oct-20 00:26N 42°44' E 006°25'8916.4
2018-Oct-19 19:00N 42°06' E 004°36'6315.7 050 / 171017.6 5.4 21.218.0
2018-Oct-19 15:00N 41°42' E 003°18'3216.2 020 / 311015.410.8 20.016.921.4
2018-Oct-19 13:00N 41°24' E 002°42'1111.6 050 / 201015.0 5.4 21.617.421.7
2018-Oct-19 12:03N 41°24' E 002°28'115.2
2018-Oct-19 12:01N 41°24' E 002°27'2122.8
2018-Oct-19 12:00N 41°24' E 002°24'612.5 050 / 241015.0 5.4 22.115.621.6
2018-Oct-19 11:30N 41°21' E 002°17'510.5
2018-Oct-19 11:03N 41°22' E 002°11'0 5.3
2018-Oct-19 11:00N 41°22' E 002°11'0 0.0
2018-Oct-17 23:32N 41°22' E 002°11'0 0.8
2018-Oct-17 23:23N 41°22' E 002°11'2 6.5
2018-Oct-17 23:03N 41°20' E 002°12'0 7.0
2018-Oct-17 23:01N 41°20' E 002°13'612.1
2018-Oct-17 22:30N 41°14' E 002°13'715.2
2018-Oct-17 22:03N 41°08' E 002°08'114.9
2018-Oct-17 22:00N 41°08' E 002°08'815.2
2018-Oct-17 21:29N 41°01' E 002°03'1428.7
2018-Oct-17 21:00N 40°48' E 001°54'5513.8 030 / 221013.2 5.4 20.216.6
2018-Oct-17 17:00N 40°00' E 001°18'6616.5 040 / 191011.910.8 20.616.324.8
2018-Oct-17 13:00N 39°00' E 000°42'6312.6 020 / 191012.5 5.4 22.011.325.0
2018-Oct-17 08:00N 38°06' E 000°00'2615.0 360 / 151014.7 5.4 22.315.1
2018-Oct-17 06:15N 37°45' W 000°20'314.6
2018-Oct-17 06:03N 37°43' W 000°22'114.8
2018-Oct-17 06:00N 37°42' W 000°23'714.6
2018-Oct-17 05:30N 37°36' W 000°28'714.5
2018-Oct-17 05:03N 37°31' W 000°33'114.5
2018-Oct-17 05:00N 37°31' W 000°34'714.6
2018-Oct-17 04:30N 37°26' W 000°41'714.9
2018-Oct-17 04:03N 37°21' W 000°47'115.0
2018-Oct-17 04:00N 37°21' W 000°48'5340.8
2018-Oct-17 04:00N 37°18' W 000°42'1120.7 360 / 231013.410.8 20.114.725.3
2018-Oct-17 03:28N 37°15' W 000°55'715.4
2018-Oct-17 02:59N 37°10' W 001°02'2424.1
2018-Oct-17 02:00N 36°54' W 001°24'6015.0 010 / 151014.727.0 20.210.7
2018-Oct-16 22:00N 36°18' W 002°24'24714.5 1016.110.8 20.215.7
2018-Oct-16 05:00N 36°12' W 007°30'5919.8 310 / 111011.910.8 19.217.123.4
2018-Oct-16 02:00N 36°24' W 008°42'4310.6 330 / 101012.427.0 19.015.6
2018-Oct-15 22:00N 36°42' W 009°30'8016.1 340 / 221013.4 5.4 18.017.2
2018-Oct-15 17:00N 38°00' W 009°54'2222.6 310 / 231010.510.8 18.416.221.1
2018-Oct-15 16:02N 38°21' W 010°02'115.6
2018-Oct-15 15:59N 38°21' W 010°02'815.8
2018-Oct-15 15:30N 38°29' W 010°04'715.9
2018-Oct-15 15:03N 38°36' W 010°05'116.2
2018-Oct-15 15:00N 38°37' W 010°05'816.5
2018-Oct-15 14:30N 38°45' W 010°06'816.2
2018-Oct-15 14:00N 38°53' W 010°07'5462.0
2018-Oct-15 14:00N 38°48' W 010°06'1326.7 330 / 251008.8 5.4 17.116.119.9
2018-Oct-15 13:30N 39°01' W 010°07'716.1
2018-Oct-15 13:03N 39°08' W 010°07'116.1
2018-Oct-15 13:00N 39°09' W 010°07'3217.4
2018-Oct-15 13:00N 39°06' W 010°06'1122.6 320 / 251008.310.8 17.115.619.0
2018-Oct-15 12:30N 39°17' W 010°08'10914.5
2018-Oct-15 05:00N 41°06' W 010°06'4824.0 270 / 541002.7 2.2 17.613.820.1
2018-Oct-15 03:00N 41°54' W 010°06'6611.0 240 / 401002.010.8 18.014.9
2018-Oct-14 21:00N 43°00' W 010°00'3015.2 190 / 321006.8 2.2 15.511.8
2018-Oct-14 19:00N 43°30' W 009°54'6412.8 190 / 281009.010.8 15.5 8.718.3
2018-Oct-14 14:00N 44°24' W 009°06'1312.7 330 / 241011.9 5.4 18.011.019.1
2018-Oct-14 13:00N 44°36' W 009°00'4422.1 320 / 161012.510.8 17.6 9.218.7
2018-Oct-14 11:00N 45°12' W 008°24'5911.7 360 / 271011.9 5.4 17.512.7
2018-Oct-14 06:00N 46°00' W 007°36'5614.0 360 / 321005.810.8 14.412.219.3
2018-Oct-14 02:00N 46°48' W 006°54'4916.2 260 / 81005.027.0 14.811.5
2018-Oct-13 23:00N 47°30' W 006°18'5811.6 210 / 141006.7 5.4 15.511.8
2018-Oct-13 18:00N 48°18' W 005°30'915.8 220 / 261006.710.8 16.114.217.0
2018-Oct-13 17:26N 48°27' W 005°28'410.2
2018-Oct-13 17:03N 48°30' W 005°25'110.5
2018-Oct-13 17:00N 48°31' W 005°25'5 9.9
2018-Oct-13 16:30N 48°35' W 005°21'4 9.6
2018-Oct-13 16:03N 48°38' W 005°16'0 9.7
2018-Oct-13 16:00N 48°38' W 005°16'510.2
2018-Oct-13 15:30N 48°42' W 005°11'510.5
2018-Oct-13 15:03N 48°46' W 005°06'111.8
2018-Oct-13 15:00N 48°46' W 005°05'611.5
2018-Oct-13 14:29N 48°50' W 004°59'10412.1
2018-Oct-13 05:52N 49°57' W 002°55'1314.7
2018-Oct-13 05:00N 50°00' W 002°36'816.0 170 / 371007.410.8 18.114.518.3
2018-Oct-13 04:29N 50°04' W 002°25'716.9
2018-Oct-13 04:03N 50°06' W 002°14'117.2
2018-Oct-13 04:00N 50°06' W 002°13'917.4
2018-Oct-13 03:30N 50°08' W 001°60'817.1
2018-Oct-13 03:04N 50°10' W 001°48'117.0
2018-Oct-13 03:00N 50°11' W 001°47'916.8
2018-Oct-13 02:29N 50°12' W 001°33'816.2
2018-Oct-13 02:00N 50°14' W 001°21'715.3
2018-Oct-13 01:30N 50°16' W 001°10'614.4
2018-Oct-13 01:03N 50°18' W 001°00'114.0
2018-Oct-13 01:00N 50°18' W 000°59'713.2
2018-Oct-13 00:31N 50°21' W 000°50'612.3
2018-Oct-13 00:04N 50°22' W 000°42'111.5
2018-Oct-13 00:00N 50°23' W 000°41'611.7
2018-Oct-12 23:30N 50°24' W 000°32'2112.0
2018-Oct-12 21:44N 50°30' E 000°00'313.0
2018-Oct-12 21:29N 50°31' E 000°05'4 8.7
2018-Oct-12 21:00N 50°30' E 000°12'477.9 180 / 301013.6 5.4 19.015.6
2018-Oct-12 20:57N 50°33' E 000°17'714.6
2018-Oct-12 20:29N 50°35' E 000°27'715.5
2018-Oct-12 20:03N 50°37' E 000°36'114.7
2018-Oct-12 20:00N 50°38' E 000°37'815.9
2018-Oct-12 19:30N 50°42' E 000°47'716.1
2018-Oct-12 19:03N 50°47' E 000°56'116.1
2018-Oct-12 19:00N 50°47' E 000°57'815.8
2018-Oct-12 18:30N 50°52' E 001°07'715.3
2018-Oct-12 18:03N 50°58' E 001°13'115.1
2018-Oct-12 18:00N 50°59' E 001°14'714.2
2018-Oct-12 17:30N 51°05' E 001°18'2 3.9
2018-Oct-12 17:03N 51°07' E 001°19'0 0.9
2018-Oct-12 17:00N 51°07' E 001°19'0 0.0
2018-Oct-12 16:19N 51°07' E 001°19'0 0.0
2018-Oct-12 15:52N 51°07' E 001°19'0 0.0
2018-Oct-12 15:25N 51°07' E 001°19'0 0.0
2018-Oct-12 15:01N 51°07' E 001°19'0 0.0
2018-Oct-12 14:49N 51°07' E 001°19'0 0.0
2018-Oct-12 14:15N 51°07' E 001°19'0 0.0
2018-Oct-12 09:40N 51°07' E 001°19'0 0.0
2018-Oct-12 09:22N 51°07' E 001°19'0 0.0
2018-Oct-12 09:01N 51°07' E 001°19'0 0.0
2018-Oct-12 08:52N 51°07' E 001°19'0 0.0
2018-Oct-12 08:13N 51°07' E 001°19'0 0.0
2018-Oct-12 08:01N 51°07' E 001°19'0 0.0
2018-Oct-12 07:46N 51°07' E 001°19'0 0.0
2018-Oct-12 06:46N 51°07' E 001°19'0 0.3
2018-Oct-12 06:30N 51°07' E 001°19'4 8.8
2018-Oct-12 06:03N 51°08' E 001°25'110.4
2018-Oct-12 06:00N 51°08' E 001°26'4 7.6
2018-Oct-12 05:30N 51°08' E 001°32'510.2
2018-Oct-12 05:03N 51°11' E 001°38'111.0
2018-Oct-12 05:00N 51°11' E 001°39'510.5
2018-Oct-12 04:30N 51°15' E 001°45'510.3
2018-Oct-12 04:03N 51°19' E 001°48'110.1
2018-Oct-12 04:00N 51°19' E 001°49'510.0
2018-Oct-12 03:30N 51°24' E 001°52'4 9.7
2018-Oct-12 03:03N 51°28' E 001°55'110.0
2018-Oct-12 03:00N 51°28' E 001°56'510.2
2018-Oct-12 02:30N 51°32' E 002°02'5 9.9
2018-Oct-12 02:02N 51°35' E 002°07'0 9.6
2018-Oct-12 02:00N 51°35' E 002°07'5 9.9
2018-Oct-12 01:30N 51°39' E 002°12'4 8.4
2018-Oct-12 01:03N 51°42' E 002°17'0 7.6
2018-Oct-12 01:00N 51°42' E 002°17'4 7.9
2018-Oct-12 00:28N 51°45' E 002°22'1710.0
2018-Oct-11 22:46N 51°60' E 002°36'5213.7
2018-Oct-11 19:00N 52°48' E 003°06'23212.0 150 / 241007.810.8 17.615.2
2018-Oct-10 23:40N 56°00' E 006°50'413.5
2018-Oct-10 23:24N 56°03' E 006°53'513.6
2018-Oct-10 23:03N 56°07' E 006°58'113.6
2018-Oct-10 23:00N 56°08' E 006°59'713.6
2018-Oct-10 22:30N 56°13' E 007°06'613.5
2018-Oct-10 22:02N 56°18' E 007°13'013.8
2018-Oct-10 22:00N 56°18' E 007°14'713.3
2018-Oct-10 21:28N 56°24' E 007°22'613.3
2018-Oct-10 21:02N 56°29' E 007°27'113.3
2018-Oct-10 21:00N 56°29' E 007°28'713.2
2018-Oct-10 20:30N 56°35' E 007°34'613.0
2018-Oct-10 20:03N 56°40' E 007°38'113.1
2018-Oct-10 20:00N 56°41' E 007°39'612.4
2018-Oct-10 19:30N 56°46' E 007°44'612.3
2018-Oct-10 19:03N 56°51' E 007°49'012.6
2018-Oct-10 19:00N 56°51' E 007°50'612.0
2018-Oct-10 18:30N 56°56' E 007°58'612.4
2018-Oct-10 18:03N 57°00' E 008°04'112.5
2018-Oct-10 18:00N 57°01' E 008°04'612.5
2018-Oct-10 17:30N 57°05' E 008°12'612.5
2018-Oct-10 17:03N 57°10' E 008°19'112.7
2018-Oct-10 17:00N 57°10' E 008°20'612.3
2018-Oct-10 16:30N 57°15' E 008°27'612.3
2018-Oct-10 16:02N 57°19' E 008°35'112.7
2018-Oct-10 15:58N 57°19' E 008°36'612.7
2018-Oct-10 15:30N 57°22' E 008°46'612.8
2018-Oct-10 15:03N 57°25' E 008°55'012.6
2018-Oct-10 15:00N 57°25' E 008°56'612.6
2018-Oct-10 14:30N 57°28' E 009°06'612.5
2018-Oct-10 14:00N 57°32' E 009°15'612.5
2018-Oct-10 13:30N 57°37' E 009°23'  

Dump ship's entire track history